sensor_id;sensor_type;location;lat;lon;timestamp;P1;durP1;ratioP1;P2;durP2;ratioP2
13764;SDS011;6953;48.810;9.204;2024-01-30T00:00:02;1.00;;;1.00;;
13764;SDS011;6953;48.810;9.204;2024-01-30T00:02:29;0.90;;;0.90;;
13764;SDS011;6953;48.810;9.204;2024-01-30T00:04:54;0.90;;;0.90;;
13764;SDS011;6953;48.810;9.204;2024-01-30T00:07:19;0.80;;;0.80;;
13764;SDS011;6953;48.810;9.204;2024-01-30T00:09:46;0.90;;;0.90;;
13764;SDS011;6953;48.810;9.204;2024-01-30T00:12:13;0.80;;;0.80;;
13764;SDS011;6953;48.810;9.204;2024-01-30T00:14:38;0.93;;;0.93;;
13764;SDS011;6953;48.810;9.204;2024-01-30T00:17:03;0.90;;;0.90;;
13764;SDS011;6953;48.810;9.204;2024-01-30T00:19:29;0.90;;;0.90;;
13764;SDS011;6953;48.810;9.204;2024-01-30T00:21:54;0.90;;;0.90;;
13764;SDS011;6953;48.810;9.204;2024-01-30T00:24:19;0.80;;;0.80;;
13764;SDS011;6953;48.810;9.204;2024-01-30T00:26:45;0.90;;;0.90;;
13764;SDS011;6953;48.810;9.204;2024-01-30T00:29:10;0.80;;;0.80;;
13764;SDS011;6953;48.810;9.204;2024-01-30T00:31:35;0.90;;;0.90;;
13764;SDS011;6953;48.810;9.204;2024-01-30T00:34:01;0.80;;;0.80;;
13764;SDS011;6953;48.810;9.204;2024-01-30T00:36:26;0.90;;;0.90;;
13764;SDS011;6953;48.810;9.204;2024-01-30T00:38:52;0.90;;;0.90;;
13764;SDS011;6953;48.810;9.204;2024-01-30T00:41:18;1.00;;;1.00;;
13764;SDS011;6953;48.810;9.204;2024-01-30T00:43:44;1.00;;;1.00;;
13764;SDS011;6953;48.810;9.204;2024-01-30T00:46:09;0.80;;;0.80;;
13764;SDS011;6953;48.810;9.204;2024-01-30T00:48:34;0.80;;;0.80;;
13764;SDS011;6953;48.810;9.204;2024-01-30T00:51:00;0.70;;;0.70;;
13764;SDS011;6953;48.810;9.204;2024-01-30T00:53:25;0.80;;;0.80;;
13764;SDS011;6953;48.810;9.204;2024-01-30T00:55:51;0.70;;;0.70;;
13764;SDS011;6953;48.810;9.204;2024-01-30T00:58:16;0.80;;;0.80;;
13764;SDS011;6953;48.810;9.204;2024-01-30T01:00:44;0.83;;;0.83;;
13764;SDS011;6953;48.810;9.204;2024-01-30T01:03:09;0.83;;;0.83;;
13764;SDS011;6953;48.810;9.204;2024-01-30T01:05:34;0.80;;;0.80;;
13764;SDS011;6953;48.810;9.204;2024-01-30T01:07:59;0.80;;;0.80;;
13764;SDS011;6953;48.810;9.204;2024-01-30T01:10:25;0.90;;;0.90;;
13764;SDS011;6953;48.810;9.204;2024-01-30T01:12:50;0.90;;;0.90;;
13764;SDS011;6953;48.810;9.204;2024-01-30T01:15:15;0.97;;;0.97;;
13764;SDS011;6953;48.810;9.204;2024-01-30T01:17:41;0.80;;;0.80;;
13764;SDS011;6953;48.810;9.204;2024-01-30T01:20:06;0.80;;;0.80;;
13764;SDS011;6953;48.810;9.204;2024-01-30T01:22:32;0.80;;;0.80;;
13764;SDS011;6953;48.810;9.204;2024-01-30T01:24:58;0.90;;;0.90;;
13764;SDS011;6953;48.810;9.204;2024-01-30T01:27:24;0.80;;;0.80;;
13764;SDS011;6953;48.810;9.204;2024-01-30T01:29:50;0.80;;;0.80;;
13764;SDS011;6953;48.810;9.204;2024-01-30T01:32:15;0.80;;;0.80;;
13764;SDS011;6953;48.810;9.204;2024-01-30T01:34:41;0.83;;;0.83;;
13764;SDS011;6953;48.810;9.204;2024-01-30T01:37:06;0.80;;;0.80;;
13764;SDS011;6953;48.810;9.204;2024-01-30T01:39:32;0.80;;;0.80;;
13764;SDS011;6953;48.810;9.204;2024-01-30T01:41:57;0.80;;;0.80;;
13764;SDS011;6953;48.810;9.204;2024-01-30T01:44:22;0.80;;;0.80;;
13764;SDS011;6953;48.810;9.204;2024-01-30T01:46:48;0.80;;;0.80;;
13764;SDS011;6953;48.810;9.204;2024-01-30T01:49:13;0.80;;;0.80;;
13764;SDS011;6953;48.810;9.204;2024-01-30T01:51:39;0.80;;;0.80;;
13764;SDS011;6953;48.810;9.204;2024-01-30T01:54:06;0.80;;;0.80;;
13764;SDS011;6953;48.810;9.204;2024-01-30T01:56:32;0.80;;;0.80;;
13764;SDS011;6953;48.810;9.204;2024-01-30T01:58:59;0.80;;;0.80;;
13764;SDS011;6953;48.810;9.204;2024-01-30T02:01:29;0.80;;;0.80;;
13764;SDS011;6953;48.810;9.204;2024-01-30T02:03:56;0.90;;;0.90;;
13764;SDS011;6953;48.810;9.204;2024-01-30T02:06:21;0.80;;;0.80;;
13764;SDS011;6953;48.810;9.204;2024-01-30T02:08:46;0.80;;;0.80;;
13764;SDS011;6953;48.810;9.204;2024-01-30T02:11:12;0.70;;;0.70;;
13764;SDS011;6953;48.810;9.204;2024-01-30T02:13:38;0.80;;;0.80;;
13764;SDS011;6953;48.810;9.204;2024-01-30T02:16:03;0.80;;;0.80;;
13764;SDS011;6953;48.810;9.204;2024-01-30T02:18:28;0.70;;;0.70;;
13764;SDS011;6953;48.810;9.204;2024-01-30T02:20:56;0.80;;;0.80;;
13764;SDS011;6953;48.810;9.204;2024-01-30T02:23:23;0.70;;;0.70;;
13764;SDS011;6953;48.810;9.204;2024-01-30T02:32:02;0.70;;;0.70;;
13764;SDS011;6953;48.810;9.204;2024-01-30T02:34:27;0.80;;;0.80;;
13764;SDS011;6953;48.810;9.204;2024-01-30T02:36:53;0.70;;;0.70;;
13764;SDS011;6953;48.810;9.204;2024-01-30T02:39:18;0.80;;;0.80;;
13764;SDS011;6953;48.810;9.204;2024-01-30T02:41:43;0.80;;;0.80;;
13764;SDS011;6953;48.810;9.204;2024-01-30T02:44:08;0.80;;;0.80;;
13764;SDS011;6953;48.810;9.204;2024-01-30T02:46:34;0.80;;;0.80;;
13764;SDS011;6953;48.810;9.204;2024-01-30T02:48:59;0.70;;;0.70;;
13764;SDS011;6953;48.810;9.204;2024-01-30T02:51:24;0.90;;;0.90;;
13764;SDS011;6953;48.810;9.204;2024-01-30T02:53:50;0.83;;;0.83;;
13764;SDS011;6953;48.810;9.204;2024-01-30T02:56:15;0.80;;;0.80;;
13764;SDS011;6953;48.810;9.204;2024-01-30T02:58:40;0.80;;;0.80;;
13764;SDS011;6953;48.810;9.204;2024-01-30T03:01:06;0.80;;;0.80;;
13764;SDS011;6953;48.810;9.204;2024-01-30T03:03:31;0.70;;;0.70;;
13764;SDS011;6953;48.810;9.204;2024-01-30T03:05:57;1.00;;;1.00;;
13764;SDS011;6953;48.810;9.204;2024-01-30T03:08:22;0.90;;;0.90;;
13764;SDS011;6953;48.810;9.204;2024-01-30T03:10:48;0.90;;;0.90;;
13764;SDS011;6953;48.810;9.204;2024-01-30T03:13:13;0.80;;;0.80;;
13764;SDS011;6953;48.810;9.204;2024-01-30T03:15:38;0.90;;;0.90;;
13764;SDS011;6953;48.810;9.204;2024-01-30T03:18:04;0.80;;;0.80;;
13764;SDS011;6953;48.810;9.204;2024-01-30T03:20:29;0.90;;;0.90;;
13764;SDS011;6953;48.810;9.204;2024-01-30T03:22:55;0.80;;;0.80;;
13764;SDS011;6953;48.810;9.204;2024-01-30T03:25:21;0.90;;;0.90;;
13764;SDS011;6953;48.810;9.204;2024-01-30T03:27:46;0.93;;;0.93;;
13764;SDS011;6953;48.810;9.204;2024-01-30T03:30:11;0.90;;;0.90;;
13764;SDS011;6953;48.810;9.204;2024-01-30T03:32:37;0.90;;;0.90;;
13764;SDS011;6953;48.810;9.204;2024-01-30T03:35:02;0.77;;;0.77;;
13764;SDS011;6953;48.810;9.204;2024-01-30T03:37:28;0.80;;;0.80;;
13764;SDS011;6953;48.810;9.204;2024-01-30T03:39:53;0.90;;;0.90;;
13764;SDS011;6953;48.810;9.204;2024-01-30T03:42:18;0.90;;;0.90;;
13764;SDS011;6953;48.810;9.204;2024-01-30T03:44:43;0.90;;;0.90;;
13764;SDS011;6953;48.810;9.204;2024-01-30T03:47:09;0.70;;;0.70;;
13764;SDS011;6953;48.810;9.204;2024-01-30T03:49:34;0.80;;;0.80;;
13764;SDS011;6953;48.810;9.204;2024-01-30T03:51:59;0.80;;;0.80;;
13764;SDS011;6953;48.810;9.204;2024-01-30T03:54:24;0.90;;;0.90;;
13764;SDS011;6953;48.810;9.204;2024-01-30T03:56:50;0.70;;;0.70;;
13764;SDS011;6953;48.810;9.204;2024-01-30T03:59:15;0.80;;;0.80;;
13764;SDS011;6953;48.810;9.204;2024-01-30T04:01:41;0.70;;;0.70;;
13764;SDS011;6953;48.810;9.204;2024-01-30T04:04:06;0.73;;;0.73;;
13764;SDS011;6953;48.810;9.204;2024-01-30T04:06:31;0.80;;;0.80;;
13764;SDS011;6953;48.810;9.204;2024-01-30T04:08:57;0.70;;;0.70;;
13764;SDS011;6953;48.810;9.204;2024-01-30T04:11:22;0.80;;;0.80;;
13764;SDS011;6953;48.810;9.204;2024-01-30T04:13:47;0.80;;;0.80;;
13764;SDS011;6953;48.810;9.204;2024-01-30T04:16:20;0.80;;;0.80;;
13764;SDS011;6953;48.810;9.204;2024-01-30T04:18:46;0.70;;;0.70;;
13764;SDS011;6953;48.810;9.204;2024-01-30T04:21:12;0.70;;;0.70;;
13764;SDS011;6953;48.810;9.204;2024-01-30T04:23:37;0.80;;;0.80;;
13764;SDS011;6953;48.810;9.204;2024-01-30T04:26:02;0.70;;;0.70;;
13764;SDS011;6953;48.810;9.204;2024-01-30T04:28:28;0.70;;;0.70;;
13764;SDS011;6953;48.810;9.204;2024-01-30T04:30:53;0.77;;;0.77;;
13764;SDS011;6953;48.810;9.204;2024-01-30T04:33:19;0.63;;;0.63;;
13764;SDS011;6953;48.810;9.204;2024-01-30T04:35:44;0.80;;;0.80;;
13764;SDS011;6953;48.810;9.204;2024-01-30T04:38:09;0.60;;;0.60;;
13764;SDS011;6953;48.810;9.204;2024-01-30T04:40:34;0.70;;;0.70;;
13764;SDS011;6953;48.810;9.204;2024-01-30T04:43:00;0.70;;;0.70;;
13764;SDS011;6953;48.810;9.204;2024-01-30T04:45:25;0.80;;;0.80;;
13764;SDS011;6953;48.810;9.204;2024-01-30T04:47:50;0.60;;;0.60;;
13764;SDS011;6953;48.810;9.204;2024-01-30T04:50:15;0.80;;;0.80;;
13764;SDS011;6953;48.810;9.204;2024-01-30T04:52:41;0.70;;;0.70;;
13764;SDS011;6953;48.810;9.204;2024-01-30T04:55:06;0.70;;;0.70;;
13764;SDS011;6953;48.810;9.204;2024-01-30T04:57:32;0.73;;;0.73;;
13764;SDS011;6953;48.810;9.204;2024-01-30T04:59:58;0.80;;;0.80;;
13764;SDS011;6953;48.810;9.204;2024-01-30T05:02:24;0.70;;;0.70;;
13764;SDS011;6953;48.810;9.204;2024-01-30T05:04:49;0.70;;;0.70;;
13764;SDS011;6953;48.810;9.204;2024-01-30T05:07:14;0.80;;;0.80;;
13764;SDS011;6953;48.810;9.204;2024-01-30T05:09:40;0.80;;;0.80;;
13764;SDS011;6953;48.810;9.204;2024-01-30T05:12:05;0.80;;;0.80;;
13764;SDS011;6953;48.810;9.204;2024-01-30T05:14:30;0.80;;;0.80;;
13764;SDS011;6953;48.810;9.204;2024-01-30T05:16:56;0.80;;;0.80;;
13764;SDS011;6953;48.810;9.204;2024-01-30T05:19:21;0.77;;;0.77;;
13764;SDS011;6953;48.810;9.204;2024-01-30T05:21:48;0.80;;;0.80;;
13764;SDS011;6953;48.810;9.204;2024-01-30T05:24:13;0.70;;;0.70;;
13764;SDS011;6953;48.810;9.204;2024-01-30T05:26:38;0.80;;;0.80;;
13764;SDS011;6953;48.810;9.204;2024-01-30T05:29:04;0.80;;;0.80;;
13764;SDS011;6953;48.810;9.204;2024-01-30T05:31:30;0.70;;;0.70;;
13764;SDS011;6953;48.810;9.204;2024-01-30T05:33:55;0.80;;;0.80;;
13764;SDS011;6953;48.810;9.204;2024-01-30T05:36:20;0.90;;;0.90;;
13764;SDS011;6953;48.810;9.204;2024-01-30T05:38:46;0.73;;;0.73;;
13764;SDS011;6953;48.810;9.204;2024-01-30T05:41:12;0.67;;;0.67;;
13764;SDS011;6953;48.810;9.204;2024-01-30T05:43:37;0.63;;;0.63;;
13764;SDS011;6953;48.810;9.204;2024-01-30T05:46:02;0.70;;;0.70;;
13764;SDS011;6953;48.810;9.204;2024-01-30T05:48:28;0.90;;;0.90;;
13764;SDS011;6953;48.810;9.204;2024-01-30T05:50:53;0.70;;;0.70;;
13764;SDS011;6953;48.810;9.204;2024-01-30T05:53:18;0.80;;;0.80;;
13764;SDS011;6953;48.810;9.204;2024-01-30T05:55:43;0.70;;;0.70;;
13764;SDS011;6953;48.810;9.204;2024-01-30T05:58:09;0.70;;;0.70;;
13764;SDS011;6953;48.810;9.204;2024-01-30T06:00:34;0.80;;;0.80;;
13764;SDS011;6953;48.810;9.204;2024-01-30T06:02:59;0.73;;;0.73;;
13764;SDS011;6953;48.810;9.204;2024-01-30T06:05:25;0.70;;;0.70;;
13764;SDS011;6953;48.810;9.204;2024-01-30T06:07:50;0.60;;;0.60;;
13764;SDS011;6953;48.810;9.204;2024-01-30T06:10:15;0.67;;;0.67;;
13764;SDS011;6953;48.810;9.204;2024-01-30T06:12:40;0.90;;;0.90;;
13764;SDS011;6953;48.810;9.204;2024-01-30T06:15:06;0.70;;;0.70;;
13764;SDS011;6953;48.810;9.204;2024-01-30T06:17:32;0.80;;;0.80;;
13764;SDS011;6953;48.810;9.204;2024-01-30T06:19:57;0.80;;;0.80;;
13764;SDS011;6953;48.810;9.204;2024-01-30T06:22:22;0.73;;;0.73;;
13764;SDS011;6953;48.810;9.204;2024-01-30T06:24:48;0.70;;;0.70;;
13764;SDS011;6953;48.810;9.204;2024-01-30T06:27:13;0.60;;;0.60;;
13764;SDS011;6953;48.810;9.204;2024-01-30T06:29:40;0.77;;;0.77;;
13764;SDS011;6953;48.810;9.204;2024-01-30T06:32:05;0.80;;;0.80;;
13764;SDS011;6953;48.810;9.204;2024-01-30T06:34:31;0.70;;;0.70;;
13764;SDS011;6953;48.810;9.204;2024-01-30T06:36:56;0.70;;;0.70;;
13764;SDS011;6953;48.810;9.204;2024-01-30T06:39:21;0.80;;;0.80;;
13764;SDS011;6953;48.810;9.204;2024-01-30T06:41:46;0.70;;;0.70;;
13764;SDS011;6953;48.810;9.204;2024-01-30T06:44:12;0.80;;;0.80;;
13764;SDS011;6953;48.810;9.204;2024-01-30T06:46:38;0.70;;;0.70;;
13764;SDS011;6953;48.810;9.204;2024-01-30T06:49:03;0.70;;;0.70;;
13764;SDS011;6953;48.810;9.204;2024-01-30T06:51:29;0.80;;;0.80;;
13764;SDS011;6953;48.810;9.204;2024-01-30T06:53:55;0.63;;;0.63;;
13764;SDS011;6953;48.810;9.204;2024-01-30T06:56:20;0.70;;;0.70;;
13764;SDS011;6953;48.810;9.204;2024-01-30T06:58:49;0.70;;;0.70;;
13764;SDS011;6953;48.810;9.204;2024-01-30T07:01:15;0.63;;;0.63;;
13764;SDS011;6953;48.810;9.204;2024-01-30T07:03:41;0.80;;;0.80;;
13764;SDS011;6953;48.810;9.204;2024-01-30T07:06:07;0.60;;;0.60;;
13764;SDS011;6953;48.810;9.204;2024-01-30T07:08:32;0.70;;;0.70;;
13764;SDS011;6953;48.810;9.204;2024-01-30T07:10:57;0.80;;;0.80;;
13764;SDS011;6953;48.810;9.204;2024-01-30T07:13:22;0.70;;;0.70;;
13764;SDS011;6953;48.810;9.204;2024-01-30T07:15:48;0.70;;;0.70;;
13764;SDS011;6953;48.810;9.204;2024-01-30T07:18:13;0.70;;;0.70;;
13764;SDS011;6953;48.810;9.204;2024-01-30T07:20:39;0.70;;;0.70;;
13764;SDS011;6953;48.810;9.204;2024-01-30T07:23:11;0.70;;;0.70;;
13764;SDS011;6953;48.810;9.204;2024-01-30T07:25:38;0.70;;;0.70;;
13764;SDS011;6953;48.810;9.204;2024-01-30T07:28:06;0.70;;;0.70;;
13764;SDS011;6953;48.810;9.204;2024-01-30T07:30:32;0.80;;;0.80;;
13764;SDS011;6953;48.810;9.204;2024-01-30T07:32:57;0.70;;;0.70;;
13764;SDS011;6953;48.810;9.204;2024-01-30T07:35:22;0.70;;;0.70;;
13764;SDS011;6953;48.810;9.204;2024-01-30T07:37:48;0.70;;;0.70;;
13764;SDS011;6953;48.810;9.204;2024-01-30T07:40:13;0.60;;;0.60;;
13764;SDS011;6953;48.810;9.204;2024-01-30T07:42:38;0.70;;;0.70;;
13764;SDS011;6953;48.810;9.204;2024-01-30T07:45:04;0.70;;;0.70;;
13764;SDS011;6953;48.810;9.204;2024-01-30T07:47:29;0.70;;;0.70;;
13764;SDS011;6953;48.810;9.204;2024-01-30T07:49:55;0.70;;;0.70;;
13764;SDS011;6953;48.810;9.204;2024-01-30T07:52:20;0.60;;;0.60;;
13764;SDS011;6953;48.810;9.204;2024-01-30T07:54:45;0.70;;;0.70;;
13764;SDS011;6953;48.810;9.204;2024-01-30T07:57:10;0.60;;;0.60;;
13764;SDS011;6953;48.810;9.204;2024-01-30T07:59:36;0.70;;;0.70;;
13764;SDS011;6953;48.810;9.204;2024-01-30T08:02:01;0.70;;;0.70;;
13764;SDS011;6953;48.810;9.204;2024-01-30T08:04:26;0.70;;;0.70;;
13764;SDS011;6953;48.810;9.204;2024-01-30T08:06:52;0.70;;;0.70;;
13764;SDS011;6953;48.810;9.204;2024-01-30T08:09:17;0.73;;;0.73;;
13764;SDS011;6953;48.810;9.204;2024-01-30T08:11:42;0.60;;;0.60;;
13764;SDS011;6953;48.810;9.204;2024-01-30T08:14:08;0.60;;;0.60;;
13764;SDS011;6953;48.810;9.204;2024-01-30T08:16:33;0.70;;;0.70;;
13764;SDS011;6953;48.810;9.204;2024-01-30T08:18:58;0.60;;;0.60;;
13764;SDS011;6953;48.810;9.204;2024-01-30T08:21:24;0.60;;;0.60;;
13764;SDS011;6953;48.810;9.204;2024-01-30T08:23:49;0.60;;;0.60;;
13764;SDS011;6953;48.810;9.204;2024-01-30T08:26:14;0.50;;;0.50;;
13764;SDS011;6953;48.810;9.204;2024-01-30T08:28:39;0.63;;;0.63;;
13764;SDS011;6953;48.810;9.204;2024-01-30T08:31:05;0.60;;;0.60;;
13764;SDS011;6953;48.810;9.204;2024-01-30T08:33:30;0.73;;;0.73;;
13764;SDS011;6953;48.810;9.204;2024-01-30T08:35:55;0.50;;;0.50;;
13764;SDS011;6953;48.810;9.204;2024-01-30T08:38:21;0.70;;;0.70;;
13764;SDS011;6953;48.810;9.204;2024-01-30T08:40:46;0.60;;;0.60;;
13764;SDS011;6953;48.810;9.204;2024-01-30T08:43:11;0.60;;;0.60;;
13764;SDS011;6953;48.810;9.204;2024-01-30T08:45:37;0.50;;;0.50;;
13764;SDS011;6953;48.810;9.204;2024-01-30T08:48:02;0.67;;;0.67;;
13764;SDS011;6953;48.810;9.204;2024-01-30T08:50:28;0.70;;;0.70;;
13764;SDS011;6953;48.810;9.204;2024-01-30T08:52:54;0.50;;;0.50;;
13764;SDS011;6953;48.810;9.204;2024-01-30T08:55:20;0.60;;;0.60;;
13764;SDS011;6953;48.810;9.204;2024-01-30T08:57:45;0.60;;;0.60;;
13764;SDS011;6953;48.810;9.204;2024-01-30T09:00:10;0.73;;;0.73;;
13764;SDS011;6953;48.810;9.204;2024-01-30T09:02:36;0.80;;;0.80;;
13764;SDS011;6953;48.810;9.204;2024-01-30T09:05:01;0.70;;;0.70;;
13764;SDS011;6953;48.810;9.204;2024-01-30T09:07:27;0.70;;;0.70;;
13764;SDS011;6953;48.810;9.204;2024-01-30T09:09:52;0.73;;;0.73;;
13764;SDS011;6953;48.810;9.204;2024-01-30T09:12:18;0.70;;;0.70;;
13764;SDS011;6953;48.810;9.204;2024-01-30T09:14:43;0.60;;;0.60;;
13764;SDS011;6953;48.810;9.204;2024-01-30T09:17:08;0.53;;;0.53;;
13764;SDS011;6953;48.810;9.204;2024-01-30T09:19:34;0.70;;;0.70;;
13764;SDS011;6953;48.810;9.204;2024-01-30T09:21:59;0.70;;;0.70;;
13764;SDS011;6953;48.810;9.204;2024-01-30T09:24:25;0.80;;;0.80;;
13764;SDS011;6953;48.810;9.204;2024-01-30T09:26:51;0.70;;;0.70;;
13764;SDS011;6953;48.810;9.204;2024-01-30T09:29:16;0.70;;;0.70;;
13764;SDS011;6953;48.810;9.204;2024-01-30T09:31:45;0.50;;;0.50;;
13764;SDS011;6953;48.810;9.204;2024-01-30T09:34:11;0.70;;;0.70;;
13764;SDS011;6953;48.810;9.204;2024-01-30T09:36:36;0.43;;;0.43;;
13764;SDS011;6953;48.810;9.204;2024-01-30T09:39:01;0.50;;;0.50;;
13764;SDS011;6953;48.810;9.204;2024-01-30T09:41:27;0.40;;;0.40;;
13764;SDS011;6953;48.810;9.204;2024-01-30T09:43:52;0.20;;;0.20;;
13764;SDS011;6953;48.810;9.204;2024-01-30T09:46:21;0.30;;;0.30;;
13764;SDS011;6953;48.810;9.204;2024-01-30T09:48:52;0.30;;;0.30;;
13764;SDS011;6953;48.810;9.204;2024-01-30T09:51:20;0.20;;;0.20;;
13764;SDS011;6953;48.810;9.204;2024-01-30T09:53:46;0.20;;;0.20;;
13764;SDS011;6953;48.810;9.204;2024-01-30T09:56:14;0.20;;;0.20;;
13764;SDS011;6953;48.810;9.204;2024-01-30T09:58:41;0.20;;;0.20;;
13764;SDS011;6953;48.810;9.204;2024-01-30T10:01:07;0.40;;;0.40;;
13764;SDS011;6953;48.810;9.204;2024-01-30T10:03:32;0.30;;;0.30;;
13764;SDS011;6953;48.810;9.204;2024-01-30T10:05:57;0.25;;;0.25;;
13764;SDS011;6953;48.810;9.204;2024-01-30T10:08:24;0.20;;;0.20;;
13764;SDS011;6953;48.810;9.204;2024-01-30T10:10:51;0.20;;;0.20;;
13764;SDS011;6953;48.810;9.204;2024-01-30T10:13:16;0.20;;;0.20;;
13764;SDS011;6953;48.810;9.204;2024-01-30T10:15:42;0.30;;;0.30;;
13764;SDS011;6953;48.810;9.204;2024-01-30T10:18:10;0.20;;;0.20;;
13764;SDS011;6953;48.810;9.204;2024-01-30T10:20:36;0.30;;;0.30;;
13764;SDS011;6953;48.810;9.204;2024-01-30T10:23:02;0.20;;;0.20;;
13764;SDS011;6953;48.810;9.204;2024-01-30T10:25:28;0.25;;;0.25;;
13764;SDS011;6953;48.810;9.204;2024-01-30T10:27:54;0.20;;;0.20;;
13764;SDS011;6953;48.810;9.204;2024-01-30T10:30:23;0.30;;;0.30;;
13764;SDS011;6953;48.810;9.204;2024-01-30T10:32:49;0.20;;;0.20;;
13764;SDS011;6953;48.810;9.204;2024-01-30T10:35:14;0.20;;;0.20;;
13764;SDS011;6953;48.810;9.204;2024-01-30T10:37:42;0.30;;;0.30;;
13764;SDS011;6953;48.810;9.204;2024-01-30T10:40:08;0.30;;;0.30;;
13764;SDS011;6953;48.810;9.204;2024-01-30T10:42:37;0.30;;;0.30;;
13764;SDS011;6953;48.810;9.204;2024-01-30T10:45:10;0.30;;;0.30;;
13764;SDS011;6953;48.810;9.204;2024-01-30T10:47:44;0.50;;;0.50;;
13764;SDS011;6953;48.810;9.204;2024-01-30T10:50:14;0.40;;;0.40;;
13764;SDS011;6953;48.810;9.204;2024-01-30T10:52:40;0.40;;;0.40;;
13764;SDS011;6953;48.810;9.204;2024-01-30T10:55:07;0.40;;;0.40;;
13764;SDS011;6953;48.810;9.204;2024-01-30T10:57:33;0.30;;;0.30;;
13764;SDS011;6953;48.810;9.204;2024-01-30T11:00:01;0.40;;;0.40;;
13764;SDS011;6953;48.810;9.204;2024-01-30T11:02:35;0.40;;;0.40;;
13764;SDS011;6953;48.810;9.204;2024-01-30T11:05:04;0.40;;;0.40;;
13764;SDS011;6953;48.810;9.204;2024-01-30T11:07:30;0.30;;;0.30;;
13764;SDS011;6953;48.810;9.204;2024-01-30T11:12:25;0.40;;;0.40;;
13764;SDS011;6953;48.810;9.204;2024-01-30T11:17:49;0.40;;;0.40;;
13764;SDS011;6953;48.810;9.204;2024-01-30T11:20:27;0.40;;;0.40;;
13764;SDS011;6953;48.810;9.204;2024-01-30T11:22:57;0.30;;;0.30;;
13764;SDS011;6953;48.810;9.204;2024-01-30T11:25:24;0.40;;;0.40;;
13764;SDS011;6953;48.810;9.204;2024-01-30T11:27:51;0.35;;;0.35;;
13764;SDS011;6953;48.810;9.204;2024-01-30T11:30:27;0.40;;;0.40;;
13764;SDS011;6953;48.810;9.204;2024-01-30T11:35:25;0.30;;;0.30;;
13764;SDS011;6953;48.810;9.204;2024-01-30T11:37:51;0.30;;;0.30;;
13764;SDS011;6953;48.810;9.204;2024-01-30T11:40:17;0.40;;;0.40;;
13764;SDS011;6953;48.810;9.204;2024-01-30T11:42:43;0.30;;;0.30;;
13764;SDS011;6953;48.810;9.204;2024-01-30T11:45:09;0.40;;;0.40;;
13764;SDS011;6953;48.810;9.204;2024-01-30T11:47:35;0.30;;;0.30;;
13764;SDS011;6953;48.810;9.204;2024-01-30T11:50:03;0.30;;;0.30;;
13764;SDS011;6953;48.810;9.204;2024-01-30T11:52:31;0.30;;;0.30;;
13764;SDS011;6953;48.810;9.204;2024-01-30T11:54:56;0.30;;;0.30;;
13764;SDS011;6953;48.810;9.204;2024-01-30T11:57:22;0.30;;;0.30;;
13764;SDS011;6953;48.810;9.204;2024-01-30T11:59:47;0.28;;;0.28;;
13764;SDS011;6953;48.810;9.204;2024-01-30T12:02:15;0.30;;;0.30;;
13764;SDS011;6953;48.810;9.204;2024-01-30T12:04:42;0.30;;;0.30;;
13764;SDS011;6953;48.810;9.204;2024-01-30T12:07:07;0.30;;;0.30;;
13764;SDS011;6953;48.810;9.204;2024-01-30T12:09:33;0.20;;;0.20;;
13764;SDS011;6953;48.810;9.204;2024-01-30T12:11:58;0.30;;;0.30;;
13764;SDS011;6953;48.810;9.204;2024-01-30T12:14:24;0.20;;;0.20;;
13764;SDS011;6953;48.810;9.204;2024-01-30T12:16:50;0.28;;;0.28;;
13764;SDS011;6953;48.810;9.204;2024-01-30T12:19:24;0.30;;;0.30;;
13764;SDS011;6953;48.810;9.204;2024-01-30T12:21:54;0.30;;;0.30;;
13764;SDS011;6953;48.810;9.204;2024-01-30T12:24:21;0.20;;;0.20;;
13764;SDS011;6953;48.810;9.204;2024-01-30T12:26:47;0.40;;;0.40;;
13764;SDS011;6953;48.810;9.204;2024-01-30T12:29:12;0.28;;;0.28;;
13764;SDS011;6953;48.810;9.204;2024-01-30T12:31:41;0.20;;;0.20;;
13764;SDS011;6953;48.810;9.204;2024-01-30T12:34:07;0.20;;;0.20;;
13764;SDS011;6953;48.810;9.204;2024-01-30T12:36:32;0.30;;;0.30;;
13764;SDS011;6953;48.810;9.204;2024-01-30T12:38:59;0.30;;;0.30;;
13764;SDS011;6953;48.810;9.204;2024-01-30T12:41:24;0.30;;;0.30;;
13764;SDS011;6953;48.810;9.204;2024-01-30T12:43:53;0.20;;;0.20;;
13764;SDS011;6953;48.810;9.204;2024-01-30T12:46:19;0.38;;;0.38;;
13764;SDS011;6953;48.810;9.204;2024-01-30T12:48:44;0.30;;;0.30;;
13764;SDS011;6953;48.810;9.204;2024-01-30T12:51:09;0.32;;;0.32;;
13764;SDS011;6953;48.810;9.204;2024-01-30T12:53:34;0.30;;;0.30;;
13764;SDS011;6953;48.810;9.204;2024-01-30T12:56:00;0.20;;;0.20;;
13764;SDS011;6953;48.810;9.204;2024-01-30T12:58:25;0.20;;;0.20;;
13764;SDS011;6953;48.810;9.204;2024-01-30T13:00:51;0.20;;;0.20;;
13764;SDS011;6953;48.810;9.204;2024-01-30T13:03:16;0.30;;;0.30;;
13764;SDS011;6953;48.810;9.204;2024-01-30T13:05:42;0.22;;;0.22;;
13764;SDS011;6953;48.810;9.204;2024-01-30T13:08:07;0.20;;;0.20;;
13764;SDS011;6953;48.810;9.204;2024-01-30T13:10:33;0.20;;;0.20;;
13764;SDS011;6953;48.810;9.204;2024-01-30T13:12:58;0.20;;;0.20;;
13764;SDS011;6953;48.810;9.204;2024-01-30T13:15:23;0.10;;;0.10;;
13764;SDS011;6953;48.810;9.204;2024-01-30T13:17:49;0.20;;;0.20;;
13764;SDS011;6953;48.810;9.204;2024-01-30T13:20:15;0.20;;;0.20;;
13764;SDS011;6953;48.810;9.204;2024-01-30T13:22:44;0.20;;;0.20;;
13764;SDS011;6953;48.810;9.204;2024-01-30T13:25:09;0.10;;;0.10;;
13764;SDS011;6953;48.810;9.204;2024-01-30T13:27:35;0.10;;;0.10;;
13764;SDS011;6953;48.810;9.204;2024-01-30T13:30:01;0.20;;;0.20;;
13764;SDS011;6953;48.810;9.204;2024-01-30T13:32:26;0.20;;;0.20;;
13764;SDS011;6953;48.810;9.204;2024-01-30T13:34:51;0.20;;;0.20;;
13764;SDS011;6953;48.810;9.204;2024-01-30T13:37:17;0.20;;;0.20;;
13764;SDS011;6953;48.810;9.204;2024-01-30T13:39:42;0.10;;;0.10;;
13764;SDS011;6953;48.810;9.204;2024-01-30T13:42:07;0.20;;;0.20;;
13764;SDS011;6953;48.810;9.204;2024-01-30T13:44:32;0.20;;;0.20;;
13764;SDS011;6953;48.810;9.204;2024-01-30T13:46:59;0.20;;;0.20;;
13764;SDS011;6953;48.810;9.204;2024-01-30T13:49:24;0.20;;;0.20;;
13764;SDS011;6953;48.810;9.204;2024-01-30T13:51:49;0.20;;;0.20;;
13764;SDS011;6953;48.810;9.204;2024-01-30T13:54:15;0.20;;;0.20;;
13764;SDS011;6953;48.810;9.204;2024-01-30T13:56:40;0.20;;;0.20;;
13764;SDS011;6953;48.810;9.204;2024-01-30T13:59:06;0.20;;;0.20;;
13764;SDS011;6953;48.810;9.204;2024-01-30T14:01:32;0.20;;;0.20;;
13764;SDS011;6953;48.810;9.204;2024-01-30T14:03:57;0.30;;;0.30;;
13764;SDS011;6953;48.810;9.204;2024-01-30T14:06:22;0.30;;;0.30;;
13764;SDS011;6953;48.810;9.204;2024-01-30T14:08:48;0.30;;;0.30;;
13764;SDS011;6953;48.810;9.204;2024-01-30T14:11:13;0.30;;;0.30;;
13764;SDS011;6953;48.810;9.204;2024-01-30T14:13:38;0.30;;;0.30;;
13764;SDS011;6953;48.810;9.204;2024-01-30T14:16:04;0.30;;;0.30;;
13764;SDS011;6953;48.810;9.204;2024-01-30T14:18:30;0.30;;;0.30;;
13764;SDS011;6953;48.810;9.204;2024-01-30T14:20:55;0.30;;;0.30;;
13764;SDS011;6953;48.810;9.204;2024-01-30T14:23:20;0.30;;;0.30;;
13764;SDS011;6953;48.810;9.204;2024-01-30T14:25:46;0.20;;;0.20;;
13764;SDS011;6953;48.810;9.204;2024-01-30T14:28:11;0.20;;;0.20;;
13764;SDS011;6953;48.810;9.204;2024-01-30T14:30:37;0.20;;;0.20;;
13764;SDS011;6953;48.810;9.204;2024-01-30T14:33:02;0.40;;;0.40;;
13764;SDS011;6953;48.810;9.204;2024-01-30T14:35:27;0.20;;;0.20;;
13764;SDS011;6953;48.810;9.204;2024-01-30T14:37:53;0.30;;;0.30;;
13764;SDS011;6953;48.810;9.204;2024-01-30T14:40:18;0.20;;;0.20;;
13764;SDS011;6953;48.810;9.204;2024-01-30T14:42:44;0.32;;;0.32;;
13764;SDS011;6953;48.810;9.204;2024-01-30T14:45:10;0.30;;;0.30;;
13764;SDS011;6953;48.810;9.204;2024-01-30T14:47:35;0.30;;;0.30;;
13764;SDS011;6953;48.810;9.204;2024-01-30T14:50:01;0.30;;;0.30;;
13764;SDS011;6953;48.810;9.204;2024-01-30T14:52:26;0.40;;;0.40;;
13764;SDS011;6953;48.810;9.204;2024-01-30T14:54:52;0.30;;;0.30;;
13764;SDS011;6953;48.810;9.204;2024-01-30T14:57:17;0.30;;;0.30;;
13764;SDS011;6953;48.810;9.204;2024-01-30T14:59:43;0.32;;;0.32;;
13764;SDS011;6953;48.810;9.204;2024-01-30T15:02:08;0.45;;;0.45;;
13764;SDS011;6953;48.810;9.204;2024-01-30T15:04:34;0.50;;;0.50;;